地図

経路データ

SID SEASON NUMBER BASIN SUBBASIN NAME ISO_TIME NATURE LAT LON WMO_WIND WMO_PRES WMO_AGENCY TRACK_TYPE DIST2LAND LANDFALL IFLAG USA_AGENCY USA_ATCF_ID USA_LAT USA_LON USA_RECORD USA_STATUS USA_WIND USA_PRES USA_SSHS USA_R34_NE USA_R34_SE USA_R34_SW USA_R34_NW USA_R50_NE USA_R50_SE USA_R50_SW USA_R50_NW USA_R64_NE USA_R64_SE USA_R64_SW USA_R64_NW USA_POCI USA_ROCI USA_RMW USA_EYE TOKYO_LAT TOKYO_LON TOKYO_GRADE TOKYO_WIND TOKYO_PRES TOKYO_R50_DIR TOKYO_R50_LONG TOKYO_R50_SHORT TOKYO_R30_DIR TOKYO_R30_LONG TOKYO_R30_SHORT TOKYO_LAND CMA_LAT CMA_LON CMA_CAT CMA_WIND CMA_PRES HKO_LAT HKO_LON HKO_CAT HKO_WIND HKO_PRES NEWDELHI_LAT NEWDELHI_LON NEWDELHI_GRADE NEWDELHI_WIND NEWDELHI_PRES NEWDELHI_CI NEWDELHI_DP NEWDELHI_POCI REUNION_LAT REUNION_LON REUNION_TYPE REUNION_WIND REUNION_PRES REUNION_TNUM REUNION_CI REUNION_RMW REUNION_R34_NE REUNION_R34_SE REUNION_R34_SW REUNION_R34_NW REUNION_R50_NE REUNION_R50_SE REUNION_R50_SW REUNION_R50_NW REUNION_R64_NE REUNION_R64_SE REUNION_R64_SW REUNION_R64_NW BOM_LAT BOM_LON BOM_TYPE BOM_WIND BOM_PRES BOM_TNUM BOM_CI BOM_RMW BOM_R34_NE BOM_R34_SE BOM_R34_SW BOM_R34_NW BOM_R50_NE BOM_R50_SE BOM_R50_SW BOM_R50_NW BOM_R64_NE BOM_R64_SE BOM_R64_SW BOM_R64_NW BOM_ROCI BOM_POCI BOM_EYE BOM_POS_METHOD BOM_PRES_METHOD NADI_LAT NADI_LON NADI_CAT NADI_WIND NADI_PRES WELLINGTON_LAT WELLINGTON_LON WELLINGTON_WIND WELLINGTON_PRES DS824_LAT DS824_LON DS824_STAGE DS824_WIND DS824_PRES TD9636_LAT TD9636_LON TD9636_STAGE TD9636_WIND TD9636_PRES TD9635_LAT TD9635_LON TD9635_WIND TD9635_PRES TD9635_ROCI NEUMANN_LAT NEUMANN_LON NEUMANN_CLASS NEUMANN_WIND NEUMANN_PRES MLC_LAT MLC_LON MLC_CLASS MLC_WIND MLC_PRES USA_GUST BOM_GUST BOM_GUST_PER REUNION_GUST REUNION_GUST_PER USA_SEAHGT USA_SEARAD_NE USA_SEARAD_SE USA_SEARAD_SW USA_SEARAD_NW STORM_SPEED STORM_DIR
1870046S16066 1870 6 SI MM NOT_NAMED 1870-02-14 18:00:00 NR -15.6000 65.5000 main 966 906 __________O___ -1 -15.6000 65.5000 7 11 227
1870046S16066 1870 6 SI MM NOT_NAMED 1870-02-14 21:00:00 NR -15.9790 65.0705 main 906 852 __________P___ -1 -15.9790 65.0705 7 11 228
1870046S16066 1870 6 SI MM NOT_NAMED 1870-02-15 00:00:00 NR -16.3361 64.6620 main 852 799 __________P___ -1 -16.3361 64.6620 7 10 228
1870046S16066 1870 6 SI MM NOT_NAMED 1870-02-15 03:00:00 NR -16.6500 64.2974 main 793 754 __________P___ -1 -16.6500 64.2974 7 9 228
1870046S16066 1870 6 SI MM NOT_NAMED 1870-02-15 06:00:00 NR -16.9000 64.0000 main 754 725 __________O___ -1 -16.9000 64.0000 7 7 229
1870046S16066 1870 6 SI MM NOT_NAMED 1870-02-15 09:00:00 NR -17.0739 63.7845 main 725 701 __________P___ -1 -17.0739 63.7845 7 5 230
1870046S16066 1870 6 SI MM NOT_NAMED 1870-02-15 12:00:00 NR -17.1945 63.6315 main 701 686 __________P___ -1 -17.1945 63.6315 7 3 230
1870046S16066 1870 6 SI MM NOT_NAMED 1870-02-15 15:00:00 NR -17.2928 63.5128 main 686 671 __________P___ -1 -17.2928 63.5128 7 3 227
1870046S16066 1870 6 SI MM NOT_NAMED 1870-02-15 18:00:00 NR -17.4000 63.4000 main 671 657 __________O___ -1 -17.4000 63.4000 7 4 222
1870046S16066 1870 6 SI MM NOT_NAMED 1870-02-15 21:00:00 NR -17.5565 63.2620 main 652 628 __________P___ -1 -17.5565 63.2620 7 4 219
1870046S16066 1870 6 SI MM NOT_NAMED 1870-02-16 00:00:00 NR -17.7273 63.1223 main 628 608 __________P___ -1 -17.7273 63.1223 7 5 218
1870046S16066 1870 6 SI MM NOT_NAMED 1870-02-16 03:00:00 NR -17.9096 62.9714 main 608 579 __________P___ -1 -17.9096 62.9714 7 5 219
1870046S16066 1870 6 SI MM NOT_NAMED 1870-02-16 06:00:00 NR -18.1000 62.8000 main 579 551 __________O___ -1 -18.1000 62.8000 7 5 223
1870046S16066 1870 6 SI MM NOT_NAMED 1870-02-16 09:00:00 NR -18.2929 62.5925 main 551 522 __________P___ -1 -18.2929 62.5925 7 6 226
1870046S16066 1870 6 SI MM NOT_NAMED 1870-02-16 12:00:00 NR -18.4926 62.3650 main 522 484 __________P___ -1 -18.4926 62.3650 7 6 227
1870046S16066 1870 6 SI MM NOT_NAMED 1870-02-16 15:00:00 NR -18.6960 62.1300 main 484 457 __________P___ -1 -18.6960 62.1300 7 6 227
1870046S16066 1870 6 SI MM NOT_NAMED 1870-02-16 18:00:00 NR -18.9000 61.9000 main 457 429 __________O___ -1 -18.9000 61.9000 7 6 226
1870046S16066 1870 6 SI MM NOT_NAMED 1870-02-16 21:00:00 NR -19.0835 61.7126 main 429 402 __________P___ -1 -19.0835 61.7126 7 5 223
1870046S16066 1870 6 SI MM NOT_NAMED 1870-02-17 00:00:00 NR -19.2696 61.5291 main 402 376 __________P___ -1 -19.2696 61.5291 7 5 223
1870046S16066 1870 6 SI MM NOT_NAMED 1870-02-17 03:00:00 NR -19.4709 61.3312 main 376 351 __________P___ -1 -19.4709 61.3312 7 6 223
1870046S16066 1870 6 SI MM NOT_NAMED 1870-02-17 06:00:00 NR -19.7000 61.1000 main 351 316 __________O___ -1 -19.7000 61.1000 7 7 225
1870046S16066 1870 6 SI MM NOT_NAMED 1870-02-17 09:00:00 NR -19.9633 60.8030 main 314 281 __________P___ -1 -19.9633 60.8030 7 8 227
1870046S16066 1870 6 SI MM NOT_NAMED 1870-02-17 12:00:00 NR -20.2553 60.4727 main 281 241 __________P___ -1 -20.2553 60.4727 7 9 226
1870046S16066 1870 6 SI MM NOT_NAMED 1870-02-17 15:00:00 NR -20.5696 60.1310 main 241 218 __________P___ -1 -20.5696 60.1310 7 9 224
1870046S16066 1870 6 SI MM NOT_NAMED 1870-02-17 18:00:00 NR -20.9000 59.8000 main 218 202 __________O___ -1 -20.9000 59.8000 7 9 221
1870046S16066 1870 6 SI MM NOT_NAMED 1870-02-17 21:00:00 NR -21.2190 59.5219 main 202 194 __________P___ -1 -21.2190 59.5219 7 8 218
1870046S16066 1870 6 SI MM NOT_NAMED 1870-02-18 00:00:00 NR -21.5545 59.2561 main 206 197 __________P___ -1 -21.5545 59.2561 7 9 216
1870046S16066 1870 6 SI MM NOT_NAMED 1870-02-18 03:00:00 NR -21.9127 58.9874 main 206 206 __________P___ -1 -21.9127 58.9874 7 9 215
1870046S16066 1870 6 SI MM NOT_NAMED 1870-02-18 06:00:00 NR -22.3000 58.7000 main 226 226 __________O___ -1 -22.3000 58.7000 7 10 216
1870046S16066 1870 6 SI MM NOT_NAMED 1870-02-18 09:00:00 NR -22.7091 58.3673 main 256 253 __________P___ -1 -22.7091 58.3673 7 11 217
1870046S16066 1870 6 SI MM NOT_NAMED 1870-02-18 12:00:00 NR -23.1476 58.0146 main 292 292 __________P___ -1 -23.1476 58.0146 7 11 216
1870046S16066 1870 6 SI MM NOT_NAMED 1870-02-18 15:00:00 NR -23.6123 57.6546 main 322 316 __________P___ -1 -23.6123 57.6546 7 12 214
1870046S16066 1870 6 SI MM NOT_NAMED 1870-02-18 18:00:00 NR -24.1000 57.3000 main 348 348 __________O___ -1 -24.1000 57.3000 7 12 212
1870046S16066 1870 6 SI MM NOT_NAMED 1870-02-18 21:00:00 NR -24.6076 56.9607 main 385 381 __________P___ -1 -24.6076 56.9607 7 12 210
1870046S16066 1870 6 SI MM NOT_NAMED 1870-02-19 00:00:00 NR -25.1303 56.6345 main 425 425 __________P___ -1 -25.1303 56.6345 7 12 209
1870046S16066 1870 6 SI MM NOT_NAMED 1870-02-19 03:00:00 NR -25.6628 56.3160 main 485 485 __________P___ -1 -25.6628 56.3160 7 12 208
1870046S16066 1870 6 SI MM NOT_NAMED 1870-02-19 06:00:00 NR -26.2000 56.0000 main 537 __________O___ -1 -26.2000 56.0000 7 12 208

IBTrACS Databaseについて

本データベースは、米国NOAAが公開する1842年以降の世界の熱帯低気圧のベストトラックデータアーカイブInternational Best Track Archive for Climate Stewardship (IBTrACS)を、ウェブで閲覧しやすい形式に変換したものです。

最終更新日:2021-10-21